createdAt,value
2022-08-19T00:00:43.262Z,0.00
2022-08-19T00:01:43.366Z,0.00
2022-08-19T00:02:50.161Z,0.00
2022-08-19T00:03:44.231Z,0.00
2022-08-19T00:04:43.238Z,0.00
2022-08-19T00:05:43.210Z,0.00
2022-08-19T00:06:43.315Z,0.00
2022-08-19T00:07:43.237Z,0.00
2022-08-19T00:08:43.177Z,0.00
2022-08-19T00:09:43.204Z,0.00
2022-08-19T00:10:43.151Z,0.00
2022-08-19T00:11:43.166Z,0.00
2022-08-19T00:12:43.906Z,0.00
2022-08-19T00:13:43.151Z,0.00
2022-08-19T00:14:43.109Z,0.00
2022-08-19T00:15:43.104Z,0.00
2022-08-19T00:16:43.083Z,0.00
2022-08-19T00:17:43.646Z,0.00
2022-08-19T00:18:43.067Z,0.00
2022-08-19T00:19:43.042Z,0.00
2022-08-19T00:20:43.038Z,0.00
2022-08-19T00:21:43.187Z,0.00
2022-08-19T00:22:43.065Z,0.00
2022-08-19T00:23:43.017Z,0.00
2022-08-19T00:24:42.995Z,0.00
2022-08-19T00:25:44.018Z,0.00
2022-08-19T00:26:43.003Z,0.00
2022-08-19T00:27:43.034Z,0.00
2022-08-19T00:28:42.960Z,0.00
2022-08-19T00:29:43.037Z,0.00
2022-08-19T00:30:42.957Z,0.00
2022-08-19T00:31:42.945Z,0.00
2022-08-19T00:32:42.918Z,0.00
2022-08-19T00:33:42.909Z,0.00
2022-08-19T00:34:42.907Z,0.00
2022-08-19T00:35:42.866Z,0.00
2022-08-19T00:36:42.889Z,0.00
2022-08-19T00:37:42.872Z,0.00
2022-08-19T00:38:42.852Z,0.00
2022-08-19T00:39:42.881Z,0.00
2022-08-19T00:40:42.841Z,0.00
2022-08-19T00:41:42.824Z,0.00
2022-08-19T00:42:42.796Z,0.00
2022-08-19T00:43:42.820Z,0.00
2022-08-19T00:44:42.781Z,0.00
2022-08-19T00:45:42.835Z,0.00
2022-08-19T00:46:43.980Z,0.00
2022-08-19T00:47:42.752Z,0.00
2022-08-19T00:48:42.767Z,0.00
2022-08-19T00:49:42.760Z,0.00
2022-08-19T00:50:51.991Z,0.00
2022-08-19T00:51:43.772Z,0.00
2022-08-19T00:52:42.689Z,0.00
2022-08-19T00:53:42.679Z,0.00
2022-08-19T00:54:42.677Z,0.00
2022-08-19T00:55:42.687Z,0.00
2022-08-19T00:56:42.677Z,0.00
2022-08-19T00:57:42.651Z,0.00
2022-08-19T00:58:42.655Z,0.00
2022-08-19T01:00:01.067Z,0.00
2022-08-19T01:00:43.633Z,0.00
2022-08-19T01:01:42.632Z,0.00
2022-08-19T01:02:42.648Z,0.00
2022-08-19T01:03:57.541Z,0.00
2022-08-19T01:04:43.560Z,0.00
2022-08-19T01:05:42.571Z,0.00
2022-08-19T01:06:42.531Z,0.00
2022-08-19T01:07:42.545Z,0.00
2022-08-19T01:08:42.504Z,0.00
2022-08-19T01:09:42.541Z,0.00
2022-08-19T01:10:42.494Z,0.00
2022-08-19T01:11:42.473Z,0.00
2022-08-19T01:12:42.468Z,0.00
2022-08-19T01:13:49.042Z,0.00
2022-08-19T01:14:43.455Z,0.00
2022-08-19T01:15:42.564Z,0.00
2022-08-19T01:16:42.441Z,0.00
2022-08-19T01:17:42.428Z,0.00
2022-08-19T01:18:42.409Z,0.00
2022-08-19T01:19:44.414Z,0.00
2022-08-19T01:20:42.387Z,0.00
2022-08-19T01:21:42.569Z,0.00
2022-08-19T01:22:42.360Z,0.00
2022-08-19T01:23:42.362Z,0.00
2022-08-19T01:24:49.596Z,0.00
2022-08-19T01:25:43.347Z,0.00
2022-08-19T01:26:42.342Z,0.00
2022-08-19T01:27:43.782Z,0.00
2022-08-19T01:28:42.470Z,0.00
2022-08-19T01:29:42.280Z,0.00
2022-08-19T01:30:44.490Z,0.00
2022-08-19T01:31:43.263Z,0.00
2022-08-19T01:32:42.248Z,0.00
2022-08-19T01:33:43.051Z,0.00
2022-08-19T01:34:42.218Z,0.00
2022-08-19T01:35:42.251Z,0.00
2022-08-19T01:36:42.199Z,0.00
2022-08-19T01:37:42.183Z,0.00
2022-08-19T01:38:44.213Z,0.00
2022-08-19T01:39:42.200Z,0.00
2022-08-19T01:40:42.295Z,0.00
2022-08-19T01:41:42.170Z,0.00
2022-08-19T01:42:42.144Z,0.00
2022-08-19T01:44:13.439Z,0.00
2022-08-19T01:44:43.162Z,0.00
2022-08-19T01:45:42.139Z,0.00
2022-08-19T01:46:42.141Z,0.00
2022-08-19T01:47:42.080Z,0.00
2022-08-19T01:48:42.067Z,0.00
2022-08-19T01:49:42.069Z,0.00
2022-08-19T01:50:42.153Z,0.00
2022-08-19T01:51:42.041Z,0.00
2022-08-19T01:52:42.081Z,0.00
2022-08-19T01:53:42.048Z,0.00
2022-08-19T01:54:42.025Z,0.00
2022-08-19T01:55:42.018Z,0.00
2022-08-19T01:56:42.024Z,0.00
2022-08-19T01:57:42.002Z,0.00
2022-08-19T01:58:41.959Z,0.00
2022-08-19T01:59:41.942Z,0.00
2022-08-19T02:00:41.945Z,0.00
2022-08-19T02:01:42.145Z,0.00
2022-08-19T02:02:44.293Z,0.00
2022-08-19T02:03:41.932Z,0.00
2022-08-19T02:04:41.901Z,0.00
2022-08-19T02:05:41.875Z,0.00
2022-08-19T02:06:41.884Z,0.00
2022-08-19T02:07:41.917Z,0.00
2022-08-19T02:08:41.871Z,0.00
2022-08-19T02:09:41.850Z,0.00
2022-08-19T02:10:41.827Z,0.00
2022-08-19T02:11:41.833Z,0.00
2022-08-19T02:12:41.801Z,0.00
2022-08-19T02:13:41.886Z,0.00
2022-08-19T02:14:41.792Z,0.00
2022-08-19T02:15:41.787Z,0.00
2022-08-19T02:16:41.785Z,0.00
2022-08-19T02:17:41.769Z,0.00
2022-08-19T02:18:41.776Z,0.00
2022-08-19T02:19:41.723Z,0.00
2022-08-19T02:20:41.727Z,0.00
2022-08-19T02:21:41.818Z,0.00
2022-08-19T02:22:41.738Z,0.00
2022-08-19T02:23:41.685Z,0.00
2022-08-19T02:24:41.672Z,0.00
2022-08-19T02:25:41.654Z,0.00
2022-08-19T02:26:41.685Z,0.00
2022-08-19T02:27:41.683Z,0.00
2022-08-19T02:28:41.643Z,0.00
2022-08-19T02:29:41.616Z,0.00
2022-08-19T02:30:41.604Z,0.00
2022-08-19T02:31:41.623Z,0.00
2022-08-19T02:32:54.425Z,0.00
2022-08-19T02:33:42.588Z,0.00
2022-08-19T02:34:41.560Z,0.00
2022-08-19T02:35:41.583Z,0.00
2022-08-19T02:36:42.479Z,0.00
2022-08-19T02:37:41.567Z,0.00
2022-08-19T02:38:41.566Z,0.00
2022-08-19T02:39:41.525Z,0.00
2022-08-19T02:40:41.535Z,0.00
2022-08-19T02:41:41.495Z,0.00
2022-08-19T02:42:41.488Z,0.00
2022-08-19T02:43:44.371Z,0.00
2022-08-19T02:44:42.455Z,0.00
2022-08-19T02:45:41.709Z,0.00
2022-08-19T02:46:41.563Z,0.00
2022-08-19T02:47:41.425Z,0.00
2022-08-19T02:48:41.435Z,0.00
2022-08-19T02:49:41.393Z,0.00
2022-08-19T02:50:41.393Z,0.00
2022-08-19T02:51:42.406Z,0.00
2022-08-19T02:52:41.434Z,0.00
2022-08-19T02:53:41.357Z,0.00
2022-08-19T02:54:41.369Z,0.00
2022-08-19T02:55:46.023Z,0.00
2022-08-19T02:56:42.381Z,0.00
2022-08-19T02:57:41.327Z,0.00
2022-08-19T02:58:41.301Z,0.00
2022-08-19T02:59:41.281Z,0.00
2022-08-19T03:00:42.223Z,0.00
2022-08-19T03:01:41.706Z,0.00
2022-08-19T03:02:41.285Z,0.00
2022-08-19T03:03:41.234Z,0.00
2022-08-19T03:04:41.275Z,0.00
2022-08-19T03:05:55.644Z,0.00
2022-08-19T03:06:42.256Z,0.00
2022-08-19T03:07:41.217Z,0.00
2022-08-19T03:08:41.228Z,0.00
2022-08-19T03:09:41.180Z,0.00
2022-08-19T03:10:41.192Z,0.00
2022-08-19T03:11:41.174Z,0.00
2022-08-19T03:12:41.163Z,0.00
2022-08-19T03:13:41.165Z,0.00
2022-08-19T03:14:41.133Z,0.00
2022-08-19T03:15:41.117Z,0.00
2022-08-19T03:16:41.142Z,0.00
2022-08-19T03:17:41.106Z,0.00
2022-08-19T03:18:41.089Z,0.00
2022-08-19T03:19:41.134Z,0.00
2022-08-19T03:20:41.058Z,0.00
2022-08-19T03:21:41.066Z,0.00
2022-08-19T03:22:41.047Z,0.00
2022-08-19T03:23:41.073Z,0.00
2022-08-19T03:24:41.015Z,0.00
2022-08-19T03:25:41.003Z,0.00
2022-08-19T03:26:41.051Z,0.00
2022-08-19T03:27:40.988Z,0.00
2022-08-19T03:28:41.012Z,0.00
2022-08-19T03:29:43.908Z,0.00
2022-08-19T03:30:41.806Z,0.00
2022-08-19T03:31:41.750Z,0.00
2022-08-19T03:32:45.492Z,0.00
2022-08-19T03:33:40.944Z,0.00
2022-08-19T03:34:40.914Z,0.00
2022-08-19T03:35:40.928Z,0.00
2022-08-19T03:36:40.926Z,0.00
2022-08-19T03:37:41.061Z,0.00
2022-08-19T03:38:40.875Z,0.00
2022-08-19T03:39:40.945Z,0.00
2022-08-19T03:40:40.870Z,0.00
2022-08-19T03:41:44.257Z,0.00
2022-08-19T03:42:48.809Z,0.00
2022-08-19T03:43:41.848Z,0.00
2022-08-19T03:44:40.807Z,0.00
2022-08-19T03:45:40.826Z,0.00
2022-08-19T03:46:42.361Z,0.00
2022-08-19T03:47:40.777Z,0.00
2022-08-19T03:48:40.790Z,0.00
2022-08-19T03:49:40.757Z,0.00
2022-08-19T03:50:40.737Z,0.00
2022-08-19T03:51:46.163Z,0.00
2022-08-19T03:52:40.749Z,0.00
2022-08-19T03:53:40.702Z,0.00
2022-08-19T03:54:40.693Z,0.00
2022-08-19T03:55:40.690Z,0.00
2022-08-19T03:56:40.681Z,0.00
2022-08-19T03:57:40.669Z,0.00
2022-08-19T03:58:40.667Z,0.00
2022-08-19T03:59:40.649Z,0.00
2022-08-19T04:00:40.634Z,0.00
2022-08-19T04:01:40.716Z,0.00
2022-08-19T04:02:40.604Z,0.00
2022-08-19T04:03:40.587Z,0.00
2022-08-19T04:04:40.632Z,0.00
2022-08-19T04:05:40.573Z,0.00
2022-08-19T04:06:40.567Z,0.00
2022-08-19T04:07:40.571Z,0.00
2022-08-19T04:08:40.533Z,0.00
2022-08-19T04:09:40.584Z,0.00
2022-08-19T04:10:40.537Z,0.00
2022-08-19T04:11:43.014Z,0.00
2022-08-19T04:12:40.531Z,0.00
2022-08-19T04:13:40.483Z,0.00
2022-08-19T04:14:40.498Z,0.00
2022-08-19T04:15:40.511Z,0.00
2022-08-19T04:16:40.457Z,0.00
2022-08-19T04:17:40.456Z,0.00
2022-08-19T04:18:40.449Z,0.00
2022-08-19T04:19:40.467Z,0.00
2022-08-19T04:20:40.422Z,0.00
2022-08-19T04:21:40.405Z,0.00
2022-08-19T04:22:40.382Z,0.00
2022-08-19T04:23:45.520Z,0.00
2022-08-19T04:24:41.383Z,0.00
2022-08-19T04:25:40.357Z,0.00
2022-08-19T04:26:40.346Z,0.00
2022-08-19T04:27:40.331Z,0.00
2022-08-19T04:28:40.308Z,0.00
2022-08-19T04:29:40.327Z,0.00
2022-08-19T04:30:40.299Z,5.62
2022-08-19T04:31:40.302Z,5.62
2022-08-19T04:32:40.298Z,5.62
2022-08-19T04:33:40.310Z,5.62
2022-08-19T04:35:02.195Z,5.62
2022-08-19T04:35:41.265Z,5.62
2022-08-19T04:36:40.261Z,5.62
2022-08-19T04:37:40.245Z,5.62
2022-08-19T04:38:40.203Z,5.62
2022-08-19T04:39:40.264Z,11.25
2022-08-19T04:40:40.216Z,11.25
2022-08-19T04:41:40.247Z,11.25
2022-08-19T04:42:40.183Z,11.25
2022-08-19T04:43:40.152Z,11.25
2022-08-19T04:44:46.139Z,11.25
2022-08-19T04:45:43.837Z,11.25
2022-08-19T04:46:50.986Z,11.25
2022-08-19T04:47:49.333Z,11.25
2022-08-19T04:48:44.930Z,11.25
2022-08-19T04:49:41.094Z,11.25
2022-08-19T04:50:40.072Z,16.88
2022-08-19T04:51:40.090Z,22.50
2022-08-19T04:52:40.053Z,22.50
2022-08-19T04:53:40.039Z,28.12
2022-08-19T04:54:40.086Z,28.12
2022-08-19T04:55:40.023Z,28.12
2022-08-19T04:56:40.035Z,28.12
2022-08-19T04:57:40.011Z,28.12
2022-08-19T04:58:40.014Z,33.75
2022-08-19T04:59:39.971Z,33.75
2022-08-19T05:00:40.032Z,33.75
2022-08-19T05:01:39.993Z,33.75
2022-08-19T05:02:39.937Z,39.38
2022-08-19T05:03:39.935Z,39.38
2022-08-19T05:04:39.984Z,39.38
2022-08-19T05:05:44.622Z,39.38
2022-08-19T05:06:41.141Z,39.38
2022-08-19T05:07:39.911Z,45.00
2022-08-19T05:08:39.870Z,45.00
2022-08-19T05:09:58.305Z,45.00
2022-08-19T05:10:40.897Z,45.00
2022-08-19T05:11:39.876Z,45.00
2022-08-19T05:12:39.850Z,45.00
2022-08-19T05:13:39.820Z,50.62
2022-08-19T05:14:39.820Z,50.62
2022-08-19T05:15:39.832Z,56.25
2022-08-19T05:16:39.805Z,56.25
2022-08-19T05:17:39.795Z,56.25
2022-08-19T05:18:39.757Z,61.88
2022-08-19T05:19:39.753Z,61.88
2022-08-19T05:20:39.733Z,67.50
2022-08-19T05:21:39.756Z,67.50
2022-08-19T05:22:39.742Z,73.12
2022-08-19T05:23:39.739Z,73.12
2022-08-19T05:24:56.379Z,73.12
2022-08-19T05:25:40.693Z,78.75
2022-08-19T05:26:39.699Z,84.38
2022-08-19T05:27:39.679Z,90.00
2022-08-19T05:28:39.659Z,95.62
2022-08-19T05:29:39.667Z,101.25
2022-08-19T05:30:47.317Z,101.25
2022-08-19T05:31:41.749Z,106.88
2022-08-19T05:32:39.623Z,112.50
2022-08-19T05:33:39.590Z,118.12
2022-08-19T05:34:39.607Z,123.75
2022-08-19T05:35:39.587Z,129.38
2022-08-19T05:36:39.616Z,135.00
2022-08-19T05:37:39.564Z,140.62
2022-08-19T05:38:39.538Z,140.62
2022-08-19T05:39:39.567Z,140.62
2022-08-19T05:40:39.541Z,140.62
2022-08-19T05:41:39.546Z,135.00
2022-08-19T05:42:39.530Z,129.38
2022-08-19T05:43:39.513Z,123.75
2022-08-19T05:44:39.469Z,123.75
2022-08-19T05:45:39.535Z,123.75
2022-08-19T05:46:39.474Z,123.75
2022-08-19T05:47:42.293Z,129.38
2022-08-19T05:48:39.469Z,135.00
2022-08-19T05:49:39.456Z,140.62
2022-08-19T05:50:39.415Z,146.25
2022-08-19T05:51:39.419Z,146.25
2022-08-19T05:52:43.734Z,151.88
2022-08-19T05:53:40.409Z,157.50
2022-08-19T05:54:39.414Z,168.75
2022-08-19T05:55:39.354Z,180.00
2022-08-19T05:56:39.365Z,185.62
2022-08-19T05:57:39.356Z,191.25
2022-08-19T05:58:39.350Z,191.25
2022-08-19T05:59:39.337Z,191.25
2022-08-19T06:00:39.344Z,191.25
2022-08-19T06:01:39.382Z,191.25
2022-08-19T06:02:39.315Z,191.25
2022-08-19T06:03:39.281Z,191.25
2022-08-19T06:04:39.285Z,196.88
2022-08-19T06:05:43.524Z,196.88
2022-08-19T06:06:40.270Z,196.88
2022-08-19T06:07:39.270Z,196.88
2022-08-19T06:08:39.244Z,196.88
2022-08-19T06:09:39.216Z,196.88
2022-08-19T06:10:39.182Z,202.50
2022-08-19T06:11:39.192Z,202.50
2022-08-19T06:12:39.364Z,208.12
2022-08-19T06:13:39.152Z,213.75
2022-08-19T06:14:41.725Z,219.38
2022-08-19T06:15:39.183Z,225.00
2022-08-19T06:16:39.151Z,225.00
2022-08-19T06:17:39.154Z,225.00
2022-08-19T06:18:39.100Z,225.00
2022-08-19T06:19:41.102Z,225.00
2022-08-19T06:20:54.992Z,219.38
2022-08-19T06:21:40.145Z,213.75
2022-08-19T06:22:39.065Z,213.75
2022-08-19T06:23:39.067Z,208.12
2022-08-19T06:24:39.033Z,213.75
2022-08-19T06:25:39.073Z,225.00
2022-08-19T06:26:39.089Z,236.25
2022-08-19T06:27:48.253Z,241.88
2022-08-19T06:28:40.010Z,241.88
2022-08-19T06:29:39.035Z,241.88
2022-08-19T06:30:39.018Z,247.50
2022-08-19T06:31:38.980Z,258.75
2022-08-19T06:32:42.826Z,270.00
2022-08-19T06:33:38.947Z,264.38
2022-08-19T06:34:38.939Z,253.12
2022-08-19T06:35:38.973Z,241.88
2022-08-19T06:36:38.957Z,236.25
2022-08-19T06:37:42.041Z,219.38
2022-08-19T06:38:38.916Z,208.12
2022-08-19T06:39:38.954Z,191.25
2022-08-19T06:40:38.931Z,174.38
2022-08-19T06:41:43.577Z,157.50
2022-08-19T06:42:39.886Z,151.88
2022-08-19T06:43:40.516Z,151.88
2022-08-19T06:44:43.351Z,151.88
2022-08-19T06:45:39.439Z,157.50
2022-08-19T06:46:38.871Z,168.75
2022-08-19T06:47:38.786Z,174.38
2022-08-19T06:48:45.287Z,174.38
2022-08-19T06:49:39.770Z,180.00
2022-08-19T06:50:39.791Z,191.25
2022-08-19T06:51:42.463Z,196.88
2022-08-19T06:52:38.768Z,191.25
2022-08-19T06:53:38.797Z,191.25
2022-08-19T06:54:40.612Z,191.25
2022-08-19T06:55:39.721Z,191.25
2022-08-19T06:56:38.708Z,196.88
2022-08-19T06:57:38.723Z,202.50
2022-08-19T06:58:38.761Z,202.50
2022-08-19T06:59:38.658Z,202.50
2022-08-19T07:00:38.662Z,196.88
2022-08-19T07:01:38.677Z,196.88
2022-08-19T07:02:38.639Z,219.38
2022-08-19T07:03:39.692Z,247.50
2022-08-19T07:04:38.677Z,292.50
2022-08-19T07:05:38.630Z,315.00
2022-08-19T07:06:43.273Z,343.12
2022-08-19T07:07:39.618Z,371.25
2022-08-19T07:09:38.569Z,410.62
2022-08-19T07:10:38.558Z,427.50
2022-08-19T07:11:38.561Z,450.00
2022-08-19T07:12:38.625Z,461.25
2022-08-19T07:13:38.552Z,478.12
2022-08-19T07:14:38.509Z,489.38
2022-08-19T07:15:38.501Z,495.00
2022-08-19T07:16:42.522Z,500.62
2022-08-19T07:17:39.100Z,506.25
2022-08-19T07:18:38.494Z,506.25
2022-08-19T07:19:38.462Z,495.00
2022-08-19T07:20:38.430Z,472.50
2022-08-19T07:21:38.423Z,444.38
2022-08-19T07:22:38.449Z,405.00
2022-08-19T07:24:38.388Z,376.88
2022-08-19T07:25:38.395Z,376.88
2022-08-19T07:26:38.388Z,393.75
2022-08-19T07:27:39.792Z,438.75
2022-08-19T07:28:38.384Z,500.62
2022-08-19T07:29:39.348Z,540.00
2022-08-19T07:30:38.360Z,568.12
2022-08-19T07:31:38.392Z,596.25
2022-08-19T07:32:38.339Z,618.75
2022-08-19T07:33:38.329Z,646.88
2022-08-19T07:34:38.291Z,669.38
2022-08-19T07:35:38.330Z,680.62
2022-08-19T07:36:38.260Z,686.25
2022-08-19T07:37:38.291Z,686.25
2022-08-19T07:38:38.292Z,680.62
2022-08-19T07:39:38.319Z,658.12
2022-08-19T07:40:38.233Z,641.25
2022-08-19T07:41:38.250Z,618.75
2022-08-19T07:42:38.256Z,585.00
2022-08-19T07:43:38.240Z,562.50
2022-08-19T07:45:38.221Z,528.75
2022-08-19T07:46:38.256Z,511.88
2022-08-19T07:47:49.961Z,500.62
2022-08-19T07:48:39.138Z,495.00
2022-08-19T07:49:38.147Z,500.62
2022-08-19T07:50:38.115Z,506.25
2022-08-19T07:51:38.136Z,500.62
2022-08-19T07:52:38.083Z,483.75
2022-08-19T07:53:39.951Z,461.25
2022-08-19T07:54:38.422Z,444.38
2022-08-19T07:55:42.026Z,433.12
2022-08-19T07:56:39.067Z,421.88
2022-08-19T07:57:38.151Z,427.50
2022-08-19T07:58:38.041Z,444.38
2022-08-19T07:59:38.018Z,450.00
2022-08-19T08:00:38.006Z,450.00
2022-08-19T08:01:41.937Z,433.12
2022-08-19T08:02:37.990Z,410.62
2022-08-19T08:03:37.997Z,405.00
2022-08-19T08:04:37.993Z,399.38
2022-08-19T08:05:41.730Z,382.50
2022-08-19T08:06:38.961Z,354.38
2022-08-19T08:07:37.930Z,326.25
2022-08-19T08:08:44.319Z,303.75
2022-08-19T08:09:39.363Z,281.25
2022-08-19T08:10:37.937Z,253.12
2022-08-19T08:11:37.948Z,219.38
2022-08-19T08:12:37.910Z,213.75
2022-08-19T08:13:39.060Z,208.12
2022-08-19T08:14:37.881Z,225.00
2022-08-19T08:15:42.659Z,247.50
2022-08-19T08:16:39.378Z,275.62
2022-08-19T08:17:49.854Z,298.12
2022-08-19T08:18:38.846Z,315.00
2022-08-19T08:19:37.848Z,320.62
2022-08-19T08:20:37.849Z,326.25
2022-08-19T08:21:37.909Z,326.25
2022-08-19T08:22:37.765Z,343.12
2022-08-19T08:23:39.807Z,354.38
2022-08-19T08:24:37.748Z,354.38
2022-08-19T08:25:37.742Z,348.75
2022-08-19T08:26:37.809Z,354.38
2022-08-19T08:27:38.724Z,371.25
2022-08-19T08:28:37.737Z,376.88
2022-08-19T08:29:37.727Z,382.50
2022-08-19T08:30:37.698Z,376.88
2022-08-19T08:31:37.699Z,365.62
2022-08-19T08:32:37.690Z,371.25
2022-08-19T08:33:37.649Z,371.25
2022-08-19T08:34:37.648Z,382.50
2022-08-19T08:35:37.702Z,393.75
2022-08-19T08:36:37.616Z,399.38
2022-08-19T08:37:37.622Z,421.88
2022-08-19T08:38:41.621Z,455.62
2022-08-19T08:39:37.588Z,489.38
2022-08-19T08:40:37.606Z,523.12
2022-08-19T08:41:37.614Z,545.62
2022-08-19T08:42:37.555Z,556.88
2022-08-19T08:43:37.546Z,573.75
2022-08-19T08:44:37.547Z,590.62
2022-08-19T08:45:41.170Z,607.50
2022-08-19T08:46:38.523Z,618.75
2022-08-19T08:47:38.136Z,646.88
2022-08-19T08:48:37.546Z,669.38
2022-08-19T08:49:37.571Z,703.12
2022-08-19T08:50:37.470Z,731.25
2022-08-19T08:51:37.536Z,759.38
2022-08-19T08:52:37.466Z,781.88
2022-08-19T08:53:41.402Z,787.50
2022-08-19T08:54:37.508Z,776.25
2022-08-19T08:55:37.457Z,736.88
2022-08-19T08:56:37.435Z,675.00
2022-08-19T08:57:40.573Z,596.25
2022-08-19T08:58:37.391Z,551.25
2022-08-19T08:59:37.408Z,540.00
2022-08-19T09:00:37.421Z,551.25
2022-08-19T09:01:37.405Z,585.00
2022-08-19T09:02:37.340Z,630.00
2022-08-19T09:03:37.362Z,658.12
2022-08-19T09:04:37.325Z,686.25
2022-08-19T09:05:39.692Z,697.50
2022-08-19T09:06:38.317Z,714.38
2022-08-19T09:07:38.869Z,725.62
2022-08-19T09:08:37.275Z,725.62
2022-08-19T09:09:37.295Z,720.00
2022-08-19T09:10:44.681Z,714.38
2022-08-19T09:11:42.991Z,720.00
2022-08-19T09:12:38.240Z,714.38
2022-08-19T09:13:37.828Z,691.88
2022-08-19T09:14:51.779Z,669.38
2022-08-19T09:15:38.196Z,658.12
2022-08-19T09:16:37.205Z,658.12
2022-08-19T09:17:37.197Z,675.00
2022-08-19T09:18:37.162Z,703.12
2022-08-19T09:19:37.200Z,714.38
2022-08-19T09:20:37.141Z,697.50
2022-08-19T09:21:37.170Z,680.62
2022-08-19T09:22:37.122Z,652.50
2022-08-19T09:23:37.109Z,630.00
2022-08-19T09:24:37.140Z,607.50
2022-08-19T09:25:37.093Z,601.88
2022-08-19T09:26:48.654Z,607.50
2022-08-19T09:27:42.781Z,624.38
2022-08-19T09:28:38.108Z,652.50
2022-08-19T09:29:37.099Z,686.25
2022-08-19T09:30:37.076Z,691.88
2022-08-19T09:31:37.055Z,669.38
2022-08-19T09:32:37.033Z,635.62
2022-08-19T09:33:37.012Z,601.88
2022-08-19T09:34:37.898Z,590.62
2022-08-19T09:35:53.008Z,613.12
2022-08-19T09:36:38.030Z,658.12
2022-08-19T09:37:36.954Z,708.75
2022-08-19T09:38:36.978Z,748.12
2022-08-19T09:39:38.025Z,765.00
2022-08-19T09:40:38.572Z,776.25
2022-08-19T09:41:37.007Z,793.12
2022-08-19T09:42:36.939Z,838.12
2022-08-19T09:43:44.553Z,894.38
2022-08-19T09:44:37.888Z,984.38
2022-08-19T09:45:36.868Z,1068.75
2022-08-19T09:46:36.974Z,1068.75
2022-08-19T09:47:36.918Z,1096.88
2022-08-19T09:48:36.868Z,1113.75
2022-08-19T09:49:36.832Z,1170.00
2022-08-19T09:50:36.877Z,1181.25
2022-08-19T09:51:36.857Z,1153.12
2022-08-19T09:52:36.804Z,1096.88
2022-08-19T09:53:36.814Z,1068.75
2022-08-19T09:54:37.083Z,1051.88
2022-08-19T09:55:36.780Z,1046.25
2022-08-19T09:56:36.797Z,1012.50
2022-08-19T09:57:36.806Z,922.50
2022-08-19T09:58:36.767Z,877.50
2022-08-19T09:59:36.800Z,843.75
2022-08-19T10:00:36.763Z,843.75
2022-08-19T10:01:36.787Z,821.25
2022-08-19T10:02:36.702Z,810.00
2022-08-19T10:03:36.774Z,793.12
2022-08-19T10:04:36.678Z,793.12
2022-08-19T10:05:36.659Z,787.50
2022-08-19T10:06:45.716Z,810.00
2022-08-19T10:07:37.677Z,838.12
2022-08-19T10:08:36.665Z,838.12
2022-08-19T10:09:36.654Z,810.00
2022-08-19T10:10:36.645Z,748.12
2022-08-19T10:11:39.689Z,686.25
2022-08-19T10:12:36.586Z,601.88
2022-08-19T10:13:36.595Z,528.75
2022-08-19T10:14:36.557Z,478.12
2022-08-19T10:15:47.082Z,489.38
2022-08-19T10:16:39.527Z,534.38
2022-08-19T10:17:36.544Z,590.62
2022-08-19T10:18:36.541Z,669.38
2022-08-19T10:19:36.513Z,759.38
2022-08-19T10:20:36.512Z,793.12
2022-08-19T10:21:36.562Z,753.75
2022-08-19T10:22:36.485Z,658.12
2022-08-19T10:23:36.465Z,556.88
2022-08-19T10:24:36.503Z,500.62
2022-08-19T10:25:36.451Z,478.12
2022-08-19T10:26:36.448Z,495.00
2022-08-19T10:27:36.464Z,528.75
2022-08-19T10:28:36.456Z,585.00
2022-08-19T10:29:36.392Z,652.50
2022-08-19T10:30:37.480Z,742.50
2022-08-19T10:32:02.082Z,826.88
2022-08-19T10:32:37.378Z,855.00
2022-08-19T10:33:53.021Z,888.75
2022-08-19T10:34:37.419Z,900.00
2022-08-19T10:35:42.576Z,933.75
2022-08-19T10:36:37.347Z,973.12
2022-08-19T10:37:37.351Z,1023.75
2022-08-19T10:38:37.349Z,1096.88
2022-08-19T10:39:43.143Z,1175.62
2022-08-19T10:40:37.280Z,1215.00
2022-08-19T10:41:36.287Z,1203.75
2022-08-19T10:42:36.261Z,1192.50
2022-08-19T10:43:36.273Z,1158.75
2022-08-19T10:44:36.292Z,1102.50
2022-08-19T10:45:36.231Z,1057.50
2022-08-19T10:46:36.283Z,1006.88
2022-08-19T10:47:36.208Z,973.12
2022-08-19T10:48:36.243Z,973.12
2022-08-19T10:49:36.206Z,956.25
2022-08-19T10:50:36.209Z,950.62
2022-08-19T10:51:36.181Z,1012.50
2022-08-19T10:52:38.888Z,1091.25
2022-08-19T10:53:36.162Z,1158.75
2022-08-19T10:54:36.185Z,1215.00
2022-08-19T10:55:36.125Z,1282.50
2022-08-19T10:56:36.196Z,1361.25
2022-08-19T10:57:59.399Z,1456.88
2022-08-19T10:58:37.079Z,1445.62
2022-08-19T10:59:36.367Z,1468.12
2022-08-19T11:00:36.074Z,1338.75
2022-08-19T11:01:36.170Z,1265.62
2022-08-19T11:02:36.063Z,1248.75
2022-08-19T11:03:36.046Z,1215.00
2022-08-19T11:04:36.065Z,1276.88
2022-08-19T11:05:36.592Z,1293.75
2022-08-19T11:06:36.109Z,1361.25
2022-08-19T11:07:36.040Z,1434.38
2022-08-19T11:08:35.994Z,1496.25
2022-08-19T11:09:35.995Z,1558.12
2022-08-19T11:10:35.957Z,1760.62
2022-08-19T11:11:39.375Z,1783.12
2022-08-19T11:12:35.943Z,1940.62
2022-08-19T11:13:35.990Z,1665.00
2022-08-19T11:14:35.924Z,1541.25
2022-08-19T11:15:36.104Z,1614.38
2022-08-19T11:16:35.895Z,1569.38
2022-08-19T11:17:35.890Z,1501.88
2022-08-19T11:18:35.910Z,1428.75
2022-08-19T11:19:35.901Z,1468.12
2022-08-19T11:20:35.913Z,1468.12
2022-08-19T11:21:35.879Z,1653.75
2022-08-19T11:22:39.040Z,1456.88
2022-08-19T11:23:36.828Z,1440.00
2022-08-19T11:24:35.953Z,1456.88
2022-08-19T11:25:35.816Z,1366.88
2022-08-19T11:26:35.839Z,1321.88
2022-08-19T11:27:35.788Z,1293.75
2022-08-19T11:28:35.801Z,1310.62
2022-08-19T11:29:35.836Z,1321.88
2022-08-19T11:30:35.762Z,1344.38
2022-08-19T11:31:35.839Z,1378.12
2022-08-19T11:32:35.822Z,1395.00
2022-08-19T11:33:35.890Z,1395.00
2022-08-19T11:34:35.702Z,1411.88
2022-08-19T11:35:35.697Z,1383.75
2022-08-19T11:36:35.759Z,1406.25
2022-08-19T11:37:35.747Z,1490.62
2022-08-19T11:38:35.664Z,1642.50
2022-08-19T11:39:35.730Z,1603.12
2022-08-19T11:40:35.657Z,1794.38
2022-08-19T11:41:35.719Z,1434.38
2022-08-19T11:42:35.618Z,1440.00
2022-08-19T11:43:37.611Z,1468.12
2022-08-19T11:44:36.825Z,1518.75
2022-08-19T11:45:35.591Z,1411.88
2022-08-19T11:46:35.620Z,1344.38
2022-08-19T11:47:35.568Z,1333.12
2022-08-19T11:48:35.584Z,1372.50
2022-08-19T11:49:35.548Z,1445.62
2022-08-19T11:50:35.705Z,1400.62
2022-08-19T11:51:35.565Z,1276.88
2022-08-19T11:52:35.551Z,1186.88
2022-08-19T11:53:35.501Z,1130.62
2022-08-19T11:54:35.497Z,1125.00
2022-08-19T11:55:35.496Z,1186.88
2022-08-19T11:56:36.487Z,1305.00
2022-08-19T11:57:35.486Z,1462.50
2022-08-19T11:58:35.465Z,1473.75
2022-08-19T11:59:35.501Z,1755.00
2022-08-19T12:00:35.429Z,1451.25
2022-08-19T12:01:35.431Z,1355.62
2022-08-19T12:02:35.429Z,1333.12
2022-08-19T12:03:35.487Z,1378.12
2022-08-19T12:04:35.455Z,1338.75
2022-08-19T12:05:35.421Z,1378.12
2022-08-19T12:06:35.435Z,1501.88
2022-08-19T12:07:35.469Z,1496.25
2022-08-19T12:08:35.343Z,1665.00
2022-08-19T12:09:35.363Z,2041.88
2022-08-19T12:10:35.363Z,1873.12
2022-08-19T12:11:35.327Z,1980.00
2022-08-19T12:12:35.349Z,1912.50
2022-08-19T12:13:35.305Z,1816.88
2022-08-19T12:14:35.358Z,1501.88
2022-08-19T12:15:36.971Z,1305.00
2022-08-19T12:16:37.729Z,1147.50
2022-08-19T12:17:35.436Z,945.00
2022-08-19T12:18:35.288Z,984.38
2022-08-19T12:19:35.267Z,871.88
2022-08-19T12:20:36.288Z,843.75
2022-08-19T12:21:35.256Z,888.75
2022-08-19T12:22:35.225Z,950.62
2022-08-19T12:23:35.189Z,1012.50
2022-08-19T12:24:35.218Z,1040.62
2022-08-19T12:25:35.171Z,1102.50
2022-08-19T12:26:36.002Z,1164.38
2022-08-19T12:27:40.217Z,1254.38
2022-08-19T12:28:35.165Z,1198.12
2022-08-19T12:29:35.145Z,1186.88
2022-08-19T12:30:35.120Z,1170.00
2022-08-19T12:31:35.205Z,1158.75
2022-08-19T12:32:35.094Z,1333.12
2022-08-19T12:33:35.111Z,945.00
2022-08-19T12:34:35.100Z,928.12
2022-08-19T12:35:35.087Z,945.00
2022-08-19T12:36:35.238Z,1006.88
2022-08-19T12:37:36.505Z,1046.25
2022-08-19T12:38:35.027Z,1068.75
2022-08-19T12:39:35.055Z,1063.12
2022-08-19T12:40:35.065Z,1046.25
2022-08-19T12:41:35.032Z,1012.50
2022-08-19T12:42:35.982Z,978.75
2022-08-19T12:43:35.015Z,950.62
2022-08-19T12:44:35.021Z,922.50
2022-08-19T12:45:35.975Z,911.25
2022-08-19T12:46:35.433Z,911.25